Time;durP1;ratioP1;P1;durP2;ratioP2;P2;SDS_P1;SDS_P2;PMS_P1;PMS_P2;Temp;Humidity;BMP_temperature;BMP_pressure;BME280_temperature;BME280_humidity;BME280_pressure;Samples;Min_cycle;Max_cycle;Signal;HPM_P1;HPM_P2
2022/04/01 00:02:05;;;;;;;2.78;2.58;;;18.90;33.00;;;;;;5016877;28;20032;-80
2022/04/01 00:04:31;;;;;;;2.80;2.45;;;18.90;32.50;;;;;;5033081;28;20030;-78
2022/04/01 00:06:57;;;;;;;2.70;2.50;;;18.90;32.50;;;;;;5033475;28;20034;-76
2022/04/01 00:09:23;;;;;;;2.70;2.50;;;18.80;32.50;;;;;;5016556;28;20044;-78
2022/04/01 00:11:51;;;;;;;2.70;2.50;;;18.80;32.50;;;;;;5019459;28;20021;-76
2022/04/01 00:14:18;;;;;;;2.70;2.50;;;18.80;32.50;;;;;;5021061;28;20439;-77
2022/04/01 00:16:45;;;;;;;2.63;2.42;;;18.80;32.50;;;;;;5037864;28;20017;-76
2022/04/01 00:19:12;;;;;;;2.50;2.30;;;18.80;32.60;;;;;;5038660;28;20064;-80
2022/04/01 00:21:39;;;;;;;3.83;2.40;;;18.80;32.50;;;;;;5037609;28;20026;-75
2022/04/01 00:24:05;;;;;;;2.47;2.28;;;18.80;32.50;;;;;;5038148;28;20018;-78
2022/04/01 00:26:32;;;;;;;2.60;2.40;;;18.80;32.60;;;;;;5020945;28;20060;-76
2022/04/01 00:28:58;;;;;;;3.05;2.35;;;18.80;32.60;;;;;;5037410;28;20009;-77
2022/04/01 00:31:24;;;;;;;2.50;2.30;;;18.70;32.50;;;;;;5037477;28;20026;-78
2022/04/01 00:34:15;;;;;;;2.67;2.30;;;18.80;32.60;;;;;;5037910;28;20026;-79
2022/04/01 00:36:36;;;;;;;2.63;2.42;;;18.70;32.50;;;;;;5037897;28;20043;-75
2022/04/01 00:39:01;;;;;;;2.40;2.20;;;18.80;33.10;;;;;;5039358;28;20168;-77
2022/04/01 00:41:28;;;;;;;2.70;2.50;;;18.80;32.60;;;;;;5038157;28;20022;-76
2022/04/01 00:44:14;;;;;;;2.60;2.40;;;18.70;32.60;;;;;;5038214;28;20026;-79
2022/04/01 00:46:44;;;;;;;2.40;2.20;;;18.70;32.70;;;;;;5038962;28;20101;-76
2022/04/01 00:49:11;;;;;;;2.47;2.28;;;18.70;32.70;;;;;;5037446;28;20021;-77
2022/04/01 00:51:38;;;;;;;2.50;2.30;;;18.70;32.70;;;;;;5038441;28;20014;-77
2022/04/01 00:54:07;;;;;;;2.53;2.33;;;18.70;32.80;;;;;;5037576;28;20071;-76
2022/04/01 00:56:34;;;;;;;2.70;2.50;;;18.70;32.80;;;;;;5037676;28;20028;-76
2022/04/01 00:59:00;;;;;;;2.67;2.47;;;18.70;32.80;;;;;;5038810;28;20075;-77
2022/04/01 01:01:26;;;;;;;2.72;2.53;;;18.60;32.80;;;;;;5038491;28;20048;-79
2022/04/01 01:03:52;;;;;;;2.70;2.50;;;18.70;33.00;;;;;;5037279;28;20033;-77
2022/04/01 01:06:19;;;;;;;2.92;2.47;;;18.60;33.00;;;;;;5039157;28;20033;-77
2022/04/01 01:08:47;;;;;;;3.05;2.80;;;18.70;33.00;;;;;;5038914;28;20005;-77
2022/04/01 01:11:14;;;;;;;2.72;2.53;;;18.60;32.90;;;;;;5037330;28;20026;-78
2022/04/01 01:13:40;;;;;;;3.30;3.00;;;18.60;32.80;;;;;;5020572;28;20100;-77
2022/04/01 01:16:07;;;;;;;2.75;2.55;;;18.60;32.90;;;;;;5036850;28;20081;-77
2022/04/01 01:18:34;;;;;;;2.92;2.72;;;18.60;32.90;;;;;;5036959;28;20022;-78
2022/04/01 01:20:59;;;;;;;3.10;2.80;;;18.60;33.00;;;;;;5036895;28;20017;-80
2022/04/01 01:23:29;;;;;;;3.40;3.10;;;18.60;33.00;;;;;;5038458;28;20417;-79
2022/04/01 01:25:55;;;;;;;3.30;2.97;;;18.60;32.90;;;;;;5038936;28;20022;-77
2022/04/01 01:28:23;;;;;;;3.55;2.90;;;18.60;32.90;;;;;;5041122;28;20022;-77
2022/04/01 01:30:49;;;;;;;3.45;3.15;;;18.50;32.90;;;;;;5039378;28;20014;-78
2022/04/01 01:33:15;;;;;;;3.08;2.80;;;18.60;32.90;;;;;;5023577;28;20022;-76
2022/04/01 01:35:42;;;;;;;3.20;2.97;;;18.60;32.80;;;;;;5039905;28;20018;-76
2022/04/01 01:38:08;;;;;;;3.63;2.97;;;18.50;32.80;;;;;;5039106;28;20022;-75
2022/04/01 01:40:34;;;;;;;3.20;3.00;;;18.50;32.80;;;;;;5039884;28;20045;-76
2022/04/01 01:43:01;;;;;;;3.30;3.00;;;18.50;32.80;;;;;;5041066;28;20025;-76
2022/04/01 01:45:31;;;;;;;3.60;3.30;;;18.50;32.70;;;;;;5042106;28;20025;-75
2022/04/01 01:47:57;;;;;;;2.78;2.58;;;18.50;32.70;;;;;;5043728;28;20017;-76
2022/04/01 01:55:53;;;;;;;3.53;3.22;;;18.50;32.70;;;;;;5048460;28;20110;-78
2022/04/01 01:58:19;;;;;;;3.40;3.10;;;18.50;32.70;;;;;;5034270;28;20017;-77
2022/04/01 02:00:45;;;;;;;3.35;3.05;;;18.50;32.70;;;;;;5054445;28;20030;-77
2022/04/01 02:03:12;;;;;;;3.17;2.97;;;18.50;32.60;;;;;;5038524;28;20041;-75
2022/04/01 02:05:39;;;;;;;3.22;2.92;;;18.50;33.10;;;;;;5037849;28;20079;-79
2022/04/01 02:08:06;;;;;;;3.80;3.45;;;18.50;32.60;;;;;;5052117;28;20024;-77
2022/04/01 02:10:35;;;;;;;3.10;2.85;;;18.40;32.60;;;;;;5071637;28;20033;-77
2022/04/01 02:13:01;;;;;;;3.40;3.10;;;18.40;32.60;;;;;;5055937;28;20010;-78
2022/04/01 02:15:27;;;;;;;3.55;3.25;;;18.50;32.60;;;;;;5043213;28;20032;-75
2022/04/01 02:17:53;;;;;;;3.20;2.90;;;18.40;32.50;;;;;;5036588;28;20014;-76
2022/04/01 02:20:19;;;;;;;3.38;3.08;;;18.40;32.40;;;;;;5036125;28;20030;-75
2022/04/01 02:22:46;;;;;;;3.05;2.85;;;18.50;32.50;;;;;;5037837;28;20066;-76
2022/04/01 02:25:13;;;;;;;3.35;3.05;;;18.40;32.50;;;;;;5037357;28;20014;-76
2022/04/01 02:27:41;;;;;;;3.13;2.90;;;18.40;32.50;;;;;;5037702;28;20032;-76
2022/04/01 02:30:10;;;;;;;3.10;2.90;;;18.40;32.60;;;;;;5037595;28;20022;-77
2022/04/01 02:32:41;;;;;;;3.42;3.13;;;18.40;32.50;;;;;;5021664;28;20049;-77
2022/04/01 02:35:08;;;;;;;3.47;3.17;;;18.40;32.40;;;;;;5021433;28;20025;-80
2022/04/01 02:37:35;;;;;;;3.50;3.20;;;18.40;32.50;;;;;;5038624;28;20097;-78
2022/04/01 02:40:05;;;;;;;3.45;3.15;;;18.40;32.40;;;;;;5038740;28;20038;-77
2022/04/01 02:42:31;;;;;;;2.90;2.70;;;18.40;32.40;;;;;;5021938;28;20044;-76
2022/04/01 02:44:57;;;;;;;3.00;2.80;;;18.40;32.40;;;;;;5039015;28;20117;-76
2022/04/01 02:47:24;;;;;;;3.22;2.92;;;18.40;32.40;;;;;;5039129;28;20061;-76
2022/04/01 02:49:50;;;;;;;3.28;2.97;;;18.40;32.40;;;;;;5038698;28;20089;-76
2022/04/01 02:52:17;;;;;;;3.17;2.90;;;18.40;32.40;;;;;;5038871;28;20029;-76
2022/04/01 02:54:43;;;;;;;3.05;2.75;;;18.40;32.30;;;;;;5038906;28;20006;-76
2022/04/01 02:57:09;;;;;;;2.90;2.70;;;18.40;32.20;;;;;;5038747;28;20037;-78
2022/04/01 02:59:36;;;;;;;2.70;2.50;;;18.40;32.20;;;;;;5038827;28;20025;-76
2022/04/01 03:02:02;;;;;;;2.78;2.58;;;18.40;32.30;;;;;;5022635;28;20033;-76
2022/04/01 03:04:28;;;;;;;3.17;2.90;;;18.30;32.30;;;;;;5038722;28;20037;-76
2022/04/01 03:06:54;;;;;;;2.80;2.60;;;18.30;32.20;;;;;;5022121;28;20017;-77
2022/04/01 03:09:20;;;;;;;2.80;2.60;;;18.40;32.20;;;;;;5038444;28;20033;-79
2022/04/01 03:11:45;;;;;;;2.70;2.50;;;18.40;32.10;;;;;;5038493;28;20022;-76
2022/04/01 03:14:12;;;;;;;2.95;2.70;;;18.30;32.20;;;;;;5038561;28;20017;-79
2022/04/01 03:16:41;;;;;;;2.97;2.78;;;18.30;32.20;;;;;;5002505;28;20026;-77
2022/04/01 03:19:08;;;;;;;3.00;2.70;;;18.30;32.10;;;;;;5018715;28;20018;-78
2022/04/01 03:21:38;;;;;;;2.80;2.60;;;18.30;32.10;;;;;;5018580;28;20007;-77
2022/04/01 03:24:05;;;;;;;2.85;2.65;;;18.30;32.70;;;;;;5002478;28;20012;-77
2022/04/01 03:26:31;;;;;;;3.30;2.70;;;18.30;32.10;;;;;;4995327;28;20026;-76
2022/04/01 03:28:59;;;;;;;2.63;2.42;;;18.30;32.20;;;;;;5010557;28;20663;-77
2022/04/01 03:31:25;;;;;;;2.72;2.53;;;18.30;32.20;;;;;;4987636;28;20394;-79
2022/04/01 03:33:51;;;;;;;2.50;2.30;;;18.30;32.20;;;;;;5003961;28;20014;-77
2022/04/01 03:36:18;;;;;;;2.38;2.17;;;18.30;32.10;;;;;;5004634;28;20029;-76
2022/04/01 03:38:43;;;;;;;2.58;2.38;;;18.30;32.10;;;;;;4989708;28;20021;-76
2022/04/01 03:41:10;;;;;;;2.63;2.42;;;18.30;32.10;;;;;;5006071;28;20038;-79
2022/04/01 03:43:36;;;;;;;2.40;2.20;;;18.30;32.10;;;;;;5003770;28;20048;-78
2022/04/01 03:46:13;;;;;;;2.55;2.35;;;18.20;32.00;;;;;;4989703;28;20029;-77
2022/04/01 03:48:56;;;;;;;2.45;2.25;;;18.30;32.10;;;;;;4990209;28;20033;-76
2022/04/01 03:51:25;;;;;;;2.40;2.20;;;18.30;32.00;;;;;;5006130;28;20049;-75
2022/04/01 03:53:55;;;;;;;2.45;2.25;;;18.30;32.00;;;;;;5003987;28;20058;-78
2022/04/01 03:56:22;;;;;;;3.13;2.10;;;18.40;31.90;;;;;;4990126;28;20014;-76
2022/04/01 03:58:49;;;;;;;2.20;2.00;;;18.50;31.60;;;;;;5003208;28;20034;-79
2022/04/01 04:01:15;;;;;;;2.50;2.30;;;18.60;31.50;;;;;;5003139;28;20018;-78
2022/04/01 04:03:41;;;;;;;2.33;2.13;;;18.80;31.70;;;;;;5005359;28;20078;-80
2022/04/01 04:06:09;;;;;;;2.40;2.20;;;18.90;31.80;;;;;;5005083;28;20080;-77
2022/04/01 04:08:36;;;;;;;2.30;2.10;;;19.10;31.10;;;;;;4986483;28;20046;-76
2022/04/01 04:11:02;;;;;;;2.20;2.00;;;19.20;30.80;;;;;;5004076;28;20003;-76
2022/04/01 04:13:28;;;;;;;2.30;1.95;;;19.40;30.40;;;;;;5002686;28;20046;-76
2022/04/01 04:16:12;;;;;;;3.40;2.08;;;19.50;30.00;;;;;;5015764;28;20053;-77
2022/04/01 04:18:47;;;;;;;2.10;1.90;;;19.70;29.90;;;;;;5021825;28;20041;-78
2022/04/01 04:21:30;;;;;;;2.10;1.90;;;19.80;29.80;;;;;;5021164;28;20018;-75
2022/04/01 04:24:03;;;;;;;2.22;2.03;;;19.90;29.60;;;;;;5021904;28;20506;-79
2022/04/01 04:26:46;;;;;;;1.73;1.63;;;20.00;29.50;;;;;;5018657;28;20065;-76
2022/04/01 04:29:14;;;;;;;1.77;1.67;;;20.10;29.40;;;;;;5020984;28;20108;-76
2022/04/01 04:31:52;;;;;;;1.90;1.80;;;20.10;29.40;;;;;;5021701;28;20014;-76
2022/04/01 04:34:19;;;;;;;1.95;1.75;;;20.20;29.30;;;;;;5021627;28;20006;-77
2022/04/01 04:36:46;;;;;;;1.75;1.65;;;20.20;29.20;;;;;;5022859;28;20022;-76
2022/04/01 04:39:41;;;;;;;1.60;1.50;;;20.20;29.10;;;;;;5023837;28;20030;-75
2022/04/01 04:42:09;;;;;;;1.60;1.50;;;20.30;29.10;;;;;;5022000;28;20481;-76
2022/04/01 04:44:35;;;;;;;1.60;1.50;;;20.40;28.90;;;;;;5021724;28;20112;-78
2022/04/01 04:47:07;;;;;;;1.73;1.63;;;20.50;28.80;;;;;;5022592;28;20065;-77
2022/04/01 04:49:33;;;;;;;1.58;1.48;;;20.60;29.10;;;;;;5022611;28;20025;-75
2022/04/01 04:51:59;;;;;;;1.60;1.50;;;20.70;28.60;;;;;;5022109;28;20006;-77
2022/04/01 04:54:27;;;;;;;1.60;1.50;;;20.80;28.50;;;;;;5022550;28;20018;-80
2022/04/01 04:56:54;;;;;;;1.40;1.30;;;20.90;28.40;;;;;;5023457;28;20064;-76
2022/04/01 04:59:22;;;;;;;1.40;1.30;;;20.90;28.30;;;;;;5024634;28;20025;-78
2022/04/01 05:02:08;;;;;;;1.58;1.40;;;21.00;28.20;;;;;;5021954;28;20026;-76
2022/04/01 05:04:51;;;;;;;1.20;1.10;;;21.10;28.10;;;;;;5019338;28;20082;-75
2022/04/01 05:07:33;;;;;;;1.60;1.40;;;21.20;28.00;;;;;;5020684;28;20038;-82
2022/04/01 05:10:05;;;;;;;1.50;1.38;;;21.20;27.90;;;;;;5020165;28;20038;-77
2022/04/01 05:12:47;;;;;;;1.40;1.30;;;21.30;27.90;;;;;;5019198;28;20029;-75
2022/04/01 05:15:17;;;;;;;1.30;1.20;;;21.40;27.80;;;;;;5019782;28;20057;-75
2022/04/01 05:18:05;;;;;;;1.40;1.30;;;21.50;27.70;;;;;;5019252;28;20046;-76
2022/04/01 05:20:35;;;;;;;1.30;1.20;;;21.50;27.60;;;;;;5019201;28;20033;-78
2022/04/01 05:23:20;;;;;;;1.40;1.30;;;21.50;27.50;;;;;;5021413;28;20018;-76
2022/04/01 05:25:55;;;;;;;1.60;1.40;;;21.50;27.50;;;;;;5020457;28;20057;-75
2022/04/01 05:28:25;;;;;;;1.50;1.15;;;21.60;27.60;;;;;;5020812;28;20018;-76
2022/04/01 05:31:13;;;;;;;1.60;1.25;;;21.60;27.50;;;;;;4989493;28;20074;-78
2022/04/01 05:33:48;;;;;;;1.38;1.27;;;21.70;27.50;;;;;;5017583;28;20028;-76
2022/04/01 05:36:13;;;;;;;1.33;1.23;;;21.70;27.60;;;;;;5005577;28;20045;-76
2022/04/01 05:38:40;;;;;;;1.40;1.30;;;21.70;27.60;;;;;;5021537;28;20053;-76
2022/04/01 05:41:06;;;;;;;1.52;1.42;;;21.70;27.70;;;;;;5003183;28;20105;-75
2022/04/01 05:43:32;;;;;;;2.42;1.50;;;21.70;27.70;;;;;;5004234;28;20025;-77
2022/04/01 05:45:58;;;;;;;1.75;1.30;;;21.70;27.80;;;;;;5021122;28;20026;-77
2022/04/01 05:48:25;;;;;;;1.55;1.45;;;21.70;27.80;;;;;;5020969;28;20029;-79
2022/04/01 05:50:51;;;;;;;1.70;1.60;;;21.70;27.80;;;;;;5022688;28;20046;-78
2022/04/01 05:53:20;;;;;;;1.70;1.60;;;21.80;27.90;;;;;;5022585;28;20061;-78
2022/04/01 05:55:46;;;;;;;1.80;1.65;;;21.80;27.90;;;;;;5022325;28;20022;-77
2022/04/01 05:58:12;;;;;;;1.63;1.52;;;21.70;27.90;;;;;;5022741;28;20100;-79
2022/04/01 06:00:50;;;;;;;1.85;1.65;;;21.80;27.90;;;;;;5021439;28;20017;-77
2022/04/01 06:03:52;;;;;;;2.08;1.80;;;21.80;27.90;;;;;;5023467;28;20081;-78
2022/04/01 06:06:22;;;;;;;1.70;1.60;;;21.80;27.90;;;;;;5022474;28;20065;-80
2022/04/01 06:09:18;;;;;;;;;;;21.80;27.90;;;;;;5023171;28;20072;-78
2022/04/01 06:12:34;;;;;;;1.83;1.73;;;21.80;27.90;;;;;;5017628;28;20008;-78
2022/04/01 06:15:09;;;;;;;3.70;1.90;;;21.80;27.90;;;;;;5011053;28;20068;-79
2022/04/01 06:17:48;;;;;;;2.63;1.90;;;21.80;27.90;;;;;;5021937;28;20026;-82
2022/04/01 06:20:17;;;;;;;2.00;1.90;;;21.90;27.80;;;;;;5020991;28;20034;-77
2022/04/01 06:22:52;;;;;;;2.00;1.80;;;21.90;27.70;;;;;;5017710;28;20041;-76
2022/04/01 06:25:20;;;;;;;2.40;2.00;;;22.00;27.80;;;;;;5017797;28;20025;-79
2022/04/01 06:27:52;;;;;;;2.15;2.00;;;21.90;27.70;;;;;;5002305;28;20038;-80
2022/04/01 06:30:21;;;;;;;2.20;2.00;;;22.00;27.70;;;;;;5018513;28;20017;-78
2022/04/01 06:33:03;;;;;;;3.35;2.05;;;22.00;27.70;;;;;;5019286;28;20056;-77
2022/04/01 06:35:44;;;;;;;2.00;1.90;;;22.00;27.70;;;;;;5000281;28;20041;-81
2022/04/01 06:38:12;;;;;;;2.15;1.92;;;22.00;27.60;;;;;;5017770;28;20054;-79
2022/04/01 06:40:47;;;;;;;2.20;2.00;;;22.00;27.50;;;;;;5017236;28;20053;-77
2022/04/01 06:43:13;;;;;;;2.28;2.08;;;22.10;27.50;;;;;;5019978;28;20045;-78
2022/04/01 06:45:40;;;;;;;2.05;1.85;;;22.10;27.50;;;;;;5005454;28;20022;-80
2022/04/01 06:48:07;;;;;;;2.65;1.95;;;22.10;27.50;;;;;;5025311;28;20084;-77
2022/04/01 06:50:33;;;;;;;2.45;2.22;;;22.10;27.60;;;;;;5027270;28;20045;-79
2022/04/01 06:53:00;;;;;;;2.55;1.88;;;22.10;27.50;;;;;;5029503;28;20033;-78
2022/04/01 06:55:26;;;;;;;2.42;2.00;;;22.10;27.60;;;;;;5042127;28;20025;-75
2022/04/01 06:57:52;;;;;;;4.40;1.95;;;22.10;27.60;;;;;;5007992;28;20021;-76
2022/04/01 07:00:18;;;;;;;4.00;1.90;;;22.10;27.50;;;;;;5025986;28;20022;-75
2022/04/01 07:02:45;;;;;;;2.15;1.90;;;22.20;27.50;;;;;;5027244;28;20033;-76
2022/04/01 07:05:11;;;;;;;3.35;1.77;;;22.20;27.50;;;;;;5008648;28;20014;-77
2022/04/01 07:07:37;;;;;;;4.85;1.92;;;22.20;27.50;;;;;;5024482;28;20113;-76
2022/04/01 07:10:04;;;;;;;3.90;1.80;;;22.20;27.50;;;;;;5022295;28;20500;-75
2022/04/01 07:12:32;;;;;;;3.65;1.70;;;22.30;27.50;;;;;;5021783;28;20440;-77
2022/04/01 07:14:59;;;;;;;4.13;1.70;;;22.30;27.50;;;;;;5021166;28;20052;-77
2022/04/01 07:17:27;;;;;;;3.78;1.60;;;22.20;27.40;;;;;;5006225;28;20030;-75
2022/04/01 07:19:53;;;;;;;2.92;1.70;;;22.20;27.40;;;;;;5019314;28;20028;-76
2022/04/01 07:22:19;;;;;;;5.07;1.70;;;22.20;27.50;;;;;;5019845;28;20030;-76
2022/04/01 07:24:45;;;;;;;3.15;1.80;;;22.20;27.40;;;;;;5035711;28;20098;-76
2022/04/01 07:27:11;;;;;;;6.60;2.42;;;22.30;27.30;;;;;;5021125;28;20018;-75
2022/04/01 07:29:40;;;;;;;3.75;1.75;;;22.30;27.40;;;;;;5019860;28;20440;-75
2022/04/01 07:34:51;;;;;;;4.40;1.73;;;22.30;27.40;;;;;;5023052;28;20106;-75
2022/04/01 07:37:23;;;;;;;2.40;1.52;;;22.20;27.40;;;;;;5023547;28;20538;-77
2022/04/01 07:39:49;;;;;;;4.78;1.80;;;22.30;27.40;;;;;;5023984;28;20022;-75
2022/04/01 07:42:15;;;;;;;3.33;1.70;;;22.30;27.30;;;;;;5024450;28;20010;-75
2022/04/01 07:44:41;;;;;;;3.58;2.40;;;22.30;27.30;;;;;;5041070;28;20034;-75
2022/04/01 07:47:19;;;;;;;5.45;1.85;;;22.30;27.30;;;;;;5024631;28;20121;-75
2022/04/01 07:49:52;;;;;;;3.78;1.73;;;22.30;27.30;;;;;;5027309;28;20461;-76
2022/04/01 07:52:21;;;;;;;5.28;1.83;;;22.30;27.30;;;;;;5025789;28;20028;-75
2022/04/01 08:01:56;;;;;;;3.75;1.75;;;22.40;27.30;;;;;;4986035;28;20034;-77
2022/04/01 08:04:33;;;;;;;2.78;1.70;;;22.40;27.30;;;;;;4929111;29;20024;-76
2022/04/01 08:07:00;;;;;;;4.50;1.80;;;22.40;27.30;;;;;;4943480;29;20118;-75
2022/04/01 08:09:28;;;;;;;4.05;1.58;;;22.40;27.40;;;;;;4943257;29;20020;-76
2022/04/01 08:11:54;;;;;;;5.30;1.50;;;22.40;27.40;;;;;;4928319;29;20028;-75
2022/04/01 08:14:20;;;;;;;4.82;1.52;;;22.40;27.40;;;;;;4929487;29;20092;-76
2022/04/01 08:16:49;;;;;;;6.38;1.80;;;22.40;27.40;;;;;;4944022;29;20028;-76
2022/04/01 08:19:16;;;;;;;7.18;1.40;;;22.50;27.80;;;;;;4946462;29;20032;-77
2022/04/01 08:22:00;;;;;;;3.20;1.50;;;22.50;27.40;;;;;;4950011;29;20019;-76
2022/04/01 08:24:26;;;;;;;2.67;1.52;;;22.50;27.40;;;;;;4932652;29;20028;-76
2022/04/01 08:26:57;;;;;;;3.38;1.42;;;22.40;27.50;;;;;;4946131;29;20105;-80
2022/04/01 08:29:26;;;;;;;5.05;1.83;;;22.40;27.50;;;;;;4928829;29;20032;-77
2022/04/01 08:31:52;;;;;;;2.35;1.50;;;22.40;27.60;;;;;;4927944;29;20067;-80
2022/04/01 08:34:25;;;;;;;6.95;1.88;;;22.30;27.70;;;;;;4978631;28;20061;-78
2022/04/01 08:37:03;;;;;;;4.20;1.60;;;22.30;27.70;;;;;;4987276;28;20031;-77
2022/04/01 08:39:53;;;;;;;4.57;1.70;;;22.30;27.70;;;;;;5026304;28;20022;-78
2022/04/01 08:42:57;;;;;;;8.15;1.67;;;22.20;27.70;;;;;;5023428;28;20042;-77
2022/04/01 08:48:47;;;;;;;5.15;1.48;;;22.20;27.90;;;;;;5021848;28;20095;-76
2022/04/01 08:51:17;;;;;;;6.35;1.90;;;22.20;28.00;;;;;;5021911;28;20026;-77
2022/04/01 08:53:44;;;;;;;;;;;22.20;28.10;;;;;;5006415;28;20014;-78
2022/04/01 08:56:16;;;;;;;5.43;1.58;;;22.20;28.10;;;;;;5006307;28;19902;-77
2022/04/01 08:58:51;;;;;;;8.30;1.92;;;22.20;28.20;;;;;;5023294;28;20093;-75
2022/04/01 09:01:20;;;;;;;7.05;2.05;;;22.20;28.20;;;;;;5006481;28;20512;-76
2022/04/01 09:03:48;;;;;;;4.90;2.00;;;22.20;28.30;;;;;;5005118;28;20036;-76
2022/04/01 09:06:35;;;;;;;4.95;1.63;;;22.20;28.40;;;;;;5005177;28;20041;-75
2022/04/01 09:09:12;;;;;;;;;;;;;;;;;;;;;
2022/04/01 09:12:09;;;;;;;6.47;1.77;;;22.20;28.30;;;;;;5020154;28;20109;-76
2022/04/01 09:14:36;;;;;;;6.20;2.08;;;22.20;28.30;;;;;;5009066;28;20910;-77
2022/04/01 09:17:09;;;;;;;5.68;1.60;;;22.20;28.20;;;;;;5002719;28;20052;-76
2022/04/01 09:19:43;;;;;;;5.00;1.40;;;22.20;28.20;;;;;;4989252;28;20057;-76
2022/04/01 09:22:23;;;;;;;6.47;1.50;;;22.10;28.20;;;;;;5021032;28;20072;-78
2022/04/01 09:25:02;;;;;;;;;;;22.20;28.20;;;;;;5019848;28;20024;-75
2022/04/01 09:27:48;;;;;;;5.93;1.50;;;22.20;28.10;;;;;;5022438;28;19905;-75
2022/04/01 09:30:36;;;;;;;2.53;1.40;;;22.20;28.10;;;;;;5021649;28;20018;-75
2022/04/01 09:33:05;;;;;;;4.75;1.90;;;22.20;28.10;;;;;;5004932;28;20025;-76
2022/04/01 09:35:51;;;;;;;6.72;1.73;;;22.20;28.10;;;;;;4982681;28;20031;-75
2022/04/01 09:38:20;;;;;;;5.70;1.63;;;22.20;28.10;;;;;;4984177;28;20026;-76
2022/04/01 09:40:59;;;;;;;5.35;1.50;;;22.20;28.20;;;;;;4966306;28;20030;-76
2022/04/01 09:43:37;;;;;;;6.10;1.90;;;22.20;28.30;;;;;;4982322;28;20046;-76
2022/04/01 09:46:25;;;;;;;6.32;1.50;;;22.20;28.30;;;;;;4982297;28;20046;-79
2022/04/01 09:49:04;;;;;;;4.13;1.60;;;22.20;28.40;;;;;;4984289;28;20536;-76
2022/04/01 09:51:35;;;;;;;4.43;1.40;;;22.20;28.50;;;;;;4950724;28;20061;-75
2022/04/01 09:54:05;;;;;;;6.15;1.50;;;22.20;28.50;;;;;;4939187;29;20163;-75
2022/04/01 10:00:18;;;;;;;5.35;1.75;;;22.20;28.60;;;;;;4959061;29;20031;-77
2022/04/01 10:03:12;;;;;;;3.75;1.50;;;22.30;28.70;;;;;;4947457;29;20035;-78
2022/04/01 10:05:45;;;;;;;3.50;1.73;;;22.20;28.60;;;;;;4958714;29;20038;-78
2022/04/01 10:08:15;;;;;;;3.50;1.50;;;22.20;28.60;;;;;;4945036;29;20023;-76
2022/04/01 10:11:14;;;;;;;4.33;1.60;;;22.20;28.70;;;;;;4942932;29;20035;-76
2022/04/01 10:16:47;;;;;;;5.03;1.42;;;22.20;28.60;;;;;;4960983;28;20005;-76
2022/04/01 10:19:29;;;;;;;5.03;1.50;;;22.20;28.50;;;;;;4962654;29;20031;-79
2022/04/01 10:22:02;;;;;;;2.55;1.42;;;22.30;28.50;;;;;;4962513;28;20023;-76
2022/04/01 10:25:08;;;;;;;3.05;1.30;;;22.30;28.40;;;;;;4944254;29;20035;-76
2022/04/01 10:27:39;;;;;;;5.70;1.77;;;22.30;28.40;;;;;;4944862;29;20083;-81
2022/04/01 10:30:43;;;;;;;5.22;1.58;;;22.30;28.40;;;;;;4961979;29;20035;-77
2022/04/01 10:33:33;;;;;;;8.02;1.50;;;22.30;28.40;;;;;;4948554;28;20035;-76
2022/04/01 10:36:31;;;;;;;6.38;1.55;;;22.30;28.30;;;;;;4963032;28;20035;-76
2022/04/01 10:39:19;;;;;;;3.75;1.27;;;22.30;28.30;;;;;;4885204;29;20112;-78
2022/04/01 10:42:06;;;;;;;4.22;1.30;;;22.40;28.30;;;;;;4840650;29;20041;-76
2022/04/01 10:45:00;;;;;;;3.27;1.30;;;22.40;28.20;;;;;;4855016;29;20059;-77
2022/04/01 10:53:45;;;;;;;7.63;1.55;;;22.40;28.10;;;;;;4872440;29;20469;-75
2022/04/01 10:56:43;;;;;;;5.40;1.70;;;22.40;28.00;;;;;;4884492;29;20143;-75
2022/04/01 10:59:41;;;;;;;4.20;1.40;;;22.40;28.00;;;;;;4866192;29;20042;-75
2022/04/01 11:02:41;;;;;;;9.80;2.33;;;22.40;28.00;;;;;;4850489;29;20049;-75
2022/04/01 11:05:37;;;;;;;6.22;1.33;;;22.40;28.00;;;;;;4851810;29;20067;-79
2022/04/01 11:08:29;;;;;;;4.38;1.33;;;22.40;28.00;;;;;;4865124;29;20076;-76
2022/04/01 11:11:22;;;;;;;6.75;1.70;;;22.40;28.00;;;;;;4851748;29;20116;-76
2022/04/01 11:21:01;;;;;;;11.20;1.90;;;22.40;27.90;;;;;;4885076;29;20444;-76
2022/04/01 11:23:48;;;;;;;9.50;1.80;;;22.40;27.90;;;;;;4856846;29;20037;-77
2022/04/01 11:26:17;;;;;;;5.00;1.58;;;22.30;27.90;;;;;;4868614;29;20622;-75
2022/04/01 11:29:04;;;;;;;6.55;1.58;;;22.40;27.90;;;;;;4865636;29;20026;-78
2022/04/01 11:31:36;;;;;;;6.80;1.50;;;22.30;27.90;;;;;;4866535;29;20033;-76
2022/04/01 11:34:10;;;;;;;9.52;1.90;;;22.40;27.90;;;;;;4868675;29;20041;-76
2022/04/01 11:36:47;;;;;;;8.63;1.70;;;22.40;27.90;;;;;;4905676;29;20095;-76
2022/04/01 11:39:39;;;;;;;5.82;1.55;;;22.40;27.90;;;;;;4923369;29;20027;-75
2022/04/01 11:42:06;;;;;;;5.82;1.60;;;22.40;27.90;;;;;;4922512;29;20044;-77
2022/04/01 11:44:32;;;;;;;7.30;1.70;;;22.40;27.90;;;;;;4921598;29;20040;-77
2022/04/01 11:46:58;;;;;;;7.53;1.73;;;22.40;27.90;;;;;;4928203;28;20548;-78
2022/04/01 11:49:26;;;;;;;8.63;2.15;;;22.40;27.90;;;;;;4946366;28;20075;-77
2022/04/01 11:51:53;;;;;;;9.82;2.08;;;22.40;28.00;;;;;;4944492;28;20033;-76
2022/04/01 11:54:20;;;;;;;12.30;1.83;;;22.40;28.10;;;;;;4944178;28;20050;-77
2022/04/01 11:56:46;;;;;;;9.35;1.55;;;22.40;28.10;;;;;;4959932;28;20027;-75
2022/04/01 11:59:12;;;;;;;14.73;2.97;;;22.40;28.20;;;;;;4927005;28;20019;-76
2022/04/01 12:01:54;;;;;;;6.78;1.92;;;22.40;28.30;;;;;;4944930;28;20031;-75
2022/04/01 12:04:33;;;;;;;10.15;1.70;;;22.40;28.30;;;;;;4960268;28;20020;-76
2022/04/01 12:09:56;;;;;;;12.45;1.60;;;22.40;28.30;;;;;;4949134;28;20031;-79
2022/04/01 12:12:25;;;;;;;10.07;1.90;;;22.40;28.40;;;;;;4946413;28;20015;-76
2022/04/01 12:15:00;;;;;;;11.17;1.70;;;22.40;28.30;;;;;;4961816;28;20020;-77
2022/04/01 12:17:25;;;;;;;10.75;1.80;;;22.40;28.30;;;;;;4950400;28;20046;-76
2022/04/01 12:20:10;;;;;;;8.55;1.73;;;22.40;28.30;;;;;;5014361;28;20030;-77
2022/04/01 12:22:41;;;;;;;6.90;2.05;;;22.40;28.30;;;;;;5023361;28;20014;-76
2022/04/01 12:25:08;;;;;;;9.20;1.60;;;22.40;28.20;;;;;;5026949;28;20014;-75
2022/04/01 12:27:49;;;;;;;9.88;1.58;;;22.40;28.20;;;;;;5026103;28;20028;-76
2022/04/01 12:30:38;;;;;;;10.10;1.60;;;22.50;28.20;;;;;;5028086;28;20006;-78
2022/04/01 12:33:06;;;;;;;9.85;1.63;;;22.50;28.10;;;;;;5022233;28;20014;-75
2022/04/01 12:35:33;;;;;;;7.07;1.80;;;22.50;28.10;;;;;;5019661;28;20075;-74
2022/04/01 12:38:10;;;;;;;10.20;1.90;;;22.50;28.20;;;;;;5022356;28;20049;-75
2022/04/01 12:40:45;;;;;;;5.80;1.77;;;22.50;28.20;;;;;;5027417;28;20045;-75
2022/04/01 12:43:39;;;;;;;6.25;1.42;;;22.50;28.60;;;;;;5024961;28;20107;-75
2022/04/01 12:46:13;;;;;;;8.45;1.70;;;22.50;28.10;;;;;;5027795;28;20090;-76
2022/04/01 12:49:01;;;;;;;9.43;1.50;;;22.50;28.00;;;;;;5029174;28;20025;-76
2022/04/01 12:51:34;;;;;;;7.10;1.50;;;22.50;28.00;;;;;;5025889;28;20053;-75
2022/04/01 12:54:04;;;;;;;7.13;1.48;;;22.50;27.90;;;;;;5005456;28;20060;-77
2022/04/01 12:56:34;;;;;;;9.70;1.70;;;22.50;27.80;;;;;;5022722;28;20061;-75
2022/04/01 12:59:10;;;;;;;5.88;1.40;;;22.50;27.70;;;;;;5020734;28;20117;-75
2022/04/01 13:01:38;;;;;;;4.88;1.35;;;22.50;27.60;;;;;;5021919;28;20029;-76
2022/04/01 13:04:06;;;;;;;6.90;1.77;;;22.50;27.50;;;;;;5020779;28;20030;-75
2022/04/01 13:06:32;;;;;;;6.28;1.48;;;22.50;27.40;;;;;;5021665;28;20030;-75
2022/04/01 13:08:59;;;;;;;7.80;1.48;;;22.50;27.30;;;;;;5023435;28;20010;-75
2022/04/01 13:11:46;;;;;;;5.60;1.70;;;22.50;27.20;;;;;;5024965;28;20030;-78
2022/04/01 13:14:24;;;;;;;6.13;1.27;;;22.50;27.20;;;;;;5020680;28;20010;-75
2022/04/01 13:16:54;;;;;;;11.52;1.42;;;22.50;27.20;;;;;;5020855;28;20018;-77
2022/04/01 13:19:37;;;;;;;3.72;1.30;;;22.50;27.20;;;;;;5021541;28;20034;-79
2022/04/01 13:22:05;;;;;;;5.28;1.50;;;22.50;27.20;;;;;;5003224;28;20053;-75
2022/04/01 13:24:38;;;;;;;7.47;1.88;;;22.50;27.20;;;;;;5002276;28;20033;-75
2022/04/01 13:27:10;;;;;;;7.30;1.30;;;22.50;27.10;;;;;;5019547;28;20026;-76
2022/04/01 13:29:36;;;;;;;9.98;1.92;;;22.50;27.20;;;;;;5002913;28;20010;-75
2022/04/01 13:32:03;;;;;;;7.97;1.33;;;22.50;27.20;;;;;;5019019;28;20018;-75
2022/04/01 13:34:30;;;;;;;3.25;1.33;;;22.50;27.20;;;;;;5002354;28;20014;-76
2022/04/01 13:36:56;;;;;;;7.97;1.60;;;22.50;27.10;;;;;;5001188;28;20022;-75
2022/04/01 13:39:23;;;;;;;9.95;1.92;;;22.50;27.10;;;;;;5017921;28;20439;-75
2022/04/01 13:41:49;;;;;;;6.10;1.40;;;22.50;27.10;;;;;;5017555;28;20025;-75
2022/04/01 13:44:15;;;;;;;6.72;1.83;;;22.50;27.00;;;;;;5017492;28;20042;-76
2022/04/01 13:46:41;;;;;;;10.38;2.30;;;22.50;27.00;;;;;;5017442;28;20033;-76
2022/04/01 13:49:07;;;;;;;3.78;1.23;;;22.50;26.90;;;;;;5034323;28;20093;-75
2022/04/01 13:51:33;;;;;;;2.85;1.30;;;22.50;26.80;;;;;;5016246;28;20125;-76
2022/04/01 13:54:00;;;;;;;4.65;1.40;;;22.50;26.80;;;;;;5016419;28;20022;-77
2022/04/01 13:56:26;;;;;;;8.43;1.55;;;22.50;26.70;;;;;;5016674;28;20048;-76